Oudega, Netherlands
Current Conditions -  °F | °C
As of 3:25 AM on Sunday 23 Nov 2014 (Local Time) from EHLW Reporting Station
Haze Haze  
Wind Chill: 45°   Ceiling: 9400
Heat Index: 48°   Visibility: 4mi
Dew Point: 46°   Wind: 7mph
Humidity: 93%   Direction: 170°S
Pressure: 30.03"   Gusts: NA
Location:  53.13°N, 6°E
Report Text: EHLW 230225Z AUTO 17006KT 6000 BR OVC094 09/08 Q1017 WHT
Loading
Personal Weather Stations






























Interactive Weather Map New forecast layout! Learn more

10-Day Weather Forecast

Advertisements
Track Severe Weather on mobile